Time;durP1;ratioP1;P1;durP2;ratioP2;P2;SDS_P1;SDS_P2;PMS_P1;PMS_P2;Temp;Humidity;BMP_temperature;BMP_pressure;BME280_temperature;BME280_humidity;BME280_pressure;Samples;Min_cycle;Max_cycle;Signal;HPM_P1;HPM_P2
2022/05/25 00:01:13;;;;;;;1.03;0.90;;;26.60;62.20;;;;;;5053719;28;20785;-80
2022/05/25 00:03:39;;;;;;;1.20;1.00;;;26.60;62.30;;;;;;5054367;28;20943;-80
2022/05/25 00:06:09;;;;;;;1.97;1.30;;;26.60;62.20;;;;;;5053963;28;20489;-80
2022/05/25 00:08:37;;;;;;;1.17;0.90;;;26.60;62.10;;;;;;5054296;28;20805;-80
2022/05/25 00:11:05;;;;;;;0.97;0.70;;;26.60;62.10;;;;;;5053654;28;20469;-80
2022/05/25 00:13:32;;;;;;;1.40;0.90;;;26.60;62.20;;;;;;5054081;28;20979;-80
2022/05/25 00:15:59;;;;;;;1.23;1.00;;;26.50;62.10;;;;;;5054207;28;20438;-90
2022/05/25 00:18:25;;;;;;;1.10;0.80;;;26.60;62.30;;;;;;5053861;28;20445;-81
2022/05/25 00:20:51;;;;;;;1.70;0.90;;;26.60;62.20;;;;;;5053983;28;20797;-88
2022/05/25 00:23:18;;;;;;;2.03;1.07;;;26.50;62.00;;;;;;5053988;28;20434;-84
2022/05/25 00:25:45;;;;;;;1.30;1.13;;;26.50;62.10;;;;;;5053784;28;20578;-80
2022/05/25 00:28:15;;;;;;;1.10;0.80;;;26.60;62.10;;;;;;5053995;28;20503;-88
2022/05/25 00:30:43;;;;;;;1.50;1.33;;;26.50;62.10;;;;;;5053572;28;20465;-80
2022/05/25 00:33:11;;;;;;;1.43;1.00;;;26.60;62.10;;;;;;5053716;28;20464;-88
2022/05/25 00:35:39;;;;;;;1.30;0.90;;;26.50;61.90;;;;;;5053754;28;20441;-80
2022/05/25 00:38:08;;;;;;;1.10;0.97;;;26.50;62.10;;;;;;5054002;28;20449;-80
2022/05/25 00:40:38;;;;;;;1.20;1.00;;;26.50;61.90;;;;;;5053145;28;20813;-80
2022/05/25 00:43:05;;;;;;;1.30;1.00;;;26.50;61.90;;;;;;5053899;28;20434;-80
2022/05/25 00:45:37;;;;;;;2.13;0.90;;;26.50;62.00;;;;;;5053425;28;20492;-81
2022/05/25 00:48:06;;;;;;;1.73;1.00;;;26.50;61.90;;;;;;5053451;28;20442;-80
2022/05/25 00:53:15;;;;;;;1.90;1.30;;;26.50;61.80;;;;;;5052421;28;20434;-80
2022/05/25 00:55:43;;;;;;;1.20;0.83;;;26.50;61.90;;;;;;5053887;28;20453;-81
2022/05/25 00:58:09;;;;;;;1.10;0.87;;;26.50;61.80;;;;;;5053233;28;20434;-80
2022/05/25 01:00:38;;;;;;;1.30;0.90;;;26.50;61.90;;;;;;5053275;28;20449;-80
2022/05/25 01:03:08;;;;;;;1.10;0.97;;;26.50;61.80;;;;;;5053004;28;20495;-81
2022/05/25 01:05:40;;;;;;;1.50;0.90;;;26.50;61.90;;;;;;5053213;28;20485;-81
2022/05/25 01:08:26;;;;;;;1.40;0.90;;;26.50;61.80;;;;;;5053187;28;20929;-80
2022/05/25 01:11:12;;;;;;;1.10;0.90;;;26.50;61.90;;;;;;5053020;28;20828;-89
2022/05/25 01:13:48;;;;;;;1.10;0.80;;;26.50;62.00;;;;;;5053275;28;20445;-81
2022/05/25 01:16:26;;;;;;;1.60;0.80;;;26.50;61.90;;;;;;5053209;28;20433;-80
2022/05/25 01:19:00;;;;;;;1.13;1.00;;;26.50;62.80;;;;;;5052890;28;20449;-81
2022/05/25 01:21:40;;;;;;;1.27;0.90;;;26.50;61.90;;;;;;5053113;28;20932;-81
2022/05/25 01:24:19;;;;;;;1.20;0.93;;;26.50;61.90;;;;;;5053147;28;20441;-81
2022/05/25 01:27:22;;;;;;;1.13;1.00;;;26.50;61.90;;;;;;5053243;28;20485;-81
2022/05/25 01:30:11;;;;;;;1.10;0.90;;;26.50;61.90;;;;;;5052772;28;20488;-84
2022/05/25 01:32:46;;;;;;;1.17;0.70;;;26.50;61.90;;;;;;5037071;28;20457;-81
2022/05/25 01:35:24;;;;;;;1.43;0.90;;;26.40;62.00;;;;;;5037310;28;20446;-80
2022/05/25 01:37:56;;;;;;;1.13;0.80;;;26.50;62.00;;;;;;5037158;28;20438;-88
2022/05/25 01:40:28;;;;;;;1.10;0.80;;;26.50;61.90;;;;;;5037006;28;20459;-81
2022/05/25 01:42:59;;;;;;;1.40;1.00;;;26.40;62.00;;;;;;5037214;28;20442;-81
2022/05/25 01:45:32;;;;;;;1.43;1.00;;;26.40;61.80;;;;;;5037036;28;20474;-81
2022/05/25 01:48:05;;;;;;;1.00;0.87;;;26.50;61.90;;;;;;5036919;28;20435;-81
2022/05/25 01:50:36;;;;;;;1.10;0.73;;;26.50;61.90;;;;;;5036810;28;20961;-81
2022/05/25 01:53:07;;;;;;;1.60;0.97;;;26.50;61.90;;;;;;5036828;28;20438;-80
2022/05/25 01:55:39;;;;;;;1.07;0.83;;;26.50;61.80;;;;;;5042039;28;20449;-80
2022/05/25 01:58:10;;;;;;;1.10;1.00;;;26.50;61.90;;;;;;5056888;28;20472;-80
2022/05/25 02:00:40;;;;;;;1.20;0.90;;;26.40;61.70;;;;;;5056869;28;20449;-80
2022/05/25 02:06:10;;;;;;;1.20;1.00;;;26.40;61.70;;;;;;5041848;28;20515;-81
2022/05/25 02:08:43;;;;;;;1.20;1.00;;;26.40;61.70;;;;;;5056608;28;20797;-80
2022/05/25 02:11:17;;;;;;;1.43;0.90;;;26.50;61.80;;;;;;5056390;28;20457;-80
2022/05/25 02:14:02;;;;;;;1.10;0.90;;;26.40;61.80;;;;;;5056491;28;20437;-80
2022/05/25 02:16:42;;;;;;;1.20;0.60;;;26.50;61.80;;;;;;5055380;28;20441;-80
2022/05/25 02:19:14;;;;;;;1.20;0.90;;;26.40;61.70;;;;;;5056502;28;20436;-80
2022/05/25 02:21:47;;;;;;;1.20;0.90;;;26.40;61.80;;;;;;5056219;28;20441;-88
2022/05/25 02:24:22;;;;;;;1.30;0.73;;;26.40;61.70;;;;;;5038622;28;20928;-80
2022/05/25 02:26:53;;;;;;;1.10;0.90;;;26.40;61.70;;;;;;5056340;28;20480;-89
2022/05/25 02:29:24;;;;;;;1.10;0.90;;;26.40;61.70;;;;;;5056244;28;20808;-82
2022/05/25 02:31:57;;;;;;;1.00;0.90;;;26.40;61.70;;;;;;5056008;28;20496;-82
2022/05/25 02:34:26;;;;;;;1.00;0.90;;;26.40;61.70;;;;;;5056169;28;20442;-81
2022/05/25 02:36:55;;;;;;;1.10;0.70;;;26.40;61.70;;;;;;5056191;28;20611;-81
2022/05/25 02:39:22;;;;;;;1.00;0.77;;;26.40;61.70;;;;;;5055666;28;20504;-89
2022/05/25 02:41:51;;;;;;;1.07;0.77;;;26.40;61.60;;;;;;5055304;28;20436;-88
2022/05/25 02:44:19;;;;;;;1.17;0.80;;;26.50;61.80;;;;;;5055467;28;20429;-82
2022/05/25 02:46:46;;;;;;;1.40;0.90;;;26.40;61.70;;;;;;5055843;28;20919;-81
2022/05/25 02:49:15;;;;;;;1.03;0.80;;;26.50;61.90;;;;;;5055539;28;20438;-81
2022/05/25 02:51:42;;;;;;;1.20;0.77;;;26.40;61.60;;;;;;5055658;28;20789;-81
2022/05/25 02:54:09;;;;;;;1.00;0.80;;;26.40;61.60;;;;;;5055594;28;20449;-81
2022/05/25 02:56:36;;;;;;;1.10;0.80;;;26.40;61.70;;;;;;5055846;28;20438;-81
2022/05/25 02:59:03;;;;;;;1.17;0.70;;;26.40;61.70;;;;;;5055350;28;20438;-80
2022/05/25 03:01:30;;;;;;;1.10;0.90;;;26.40;61.60;;;;;;5055040;28;20804;-81
2022/05/25 03:03:57;;;;;;;1.00;0.70;;;26.40;61.70;;;;;;5054890;28;20438;-81
2022/05/25 03:06:25;;;;;;;1.10;1.00;;;26.40;61.60;;;;;;5051916;28;20484;-80
2022/05/25 03:08:52;;;;;;;1.00;0.80;;;26.40;61.60;;;;;;5054685;28;21016;-89
2022/05/25 03:11:19;;;;;;;1.00;0.83;;;26.40;61.60;;;;;;5054677;28;20442;-80
2022/05/25 03:13:48;;;;;;;0.97;0.80;;;26.40;62.50;;;;;;5054688;28;20438;-80
2022/05/25 03:16:18;;;;;;;1.20;0.90;;;26.40;61.60;;;;;;5049138;28;20445;-80
2022/05/25 03:18:48;;;;;;;2.33;1.00;;;26.40;61.50;;;;;;5054597;28;20857;-81
2022/05/25 03:21:16;;;;;;;1.00;0.80;;;26.40;61.60;;;;;;5049767;28;20441;-85
2022/05/25 03:23:44;;;;;;;1.10;1.00;;;26.40;61.60;;;;;;5054841;28;20459;-83
2022/05/25 03:26:12;;;;;;;1.10;0.80;;;26.40;61.60;;;;;;5054699;28;20470;-80
2022/05/25 03:28:39;;;;;;;1.20;0.80;;;26.30;61.50;;;;;;5054502;28;20442;-80
2022/05/25 03:31:06;;;;;;;1.20;0.80;;;26.40;61.60;;;;;;5054542;28;20461;-88
2022/05/25 03:33:33;;;;;;;1.00;0.80;;;26.30;61.50;;;;;;5054719;28;20438;-87
2022/05/25 03:35:59;;;;;;;1.10;0.90;;;26.30;61.50;;;;;;5054756;28;20967;-89
2022/05/25 03:38:28;;;;;;;1.00;0.80;;;26.30;61.50;;;;;;5054074;28;20441;-81
2022/05/25 03:40:56;;;;;;;1.00;0.77;;;26.30;61.50;;;;;;5053893;28;20464;-81
2022/05/25 03:43:33;;;;;;;1.10;0.80;;;26.30;61.40;;;;;;5054242;28;20446;-81
2022/05/25 03:45:59;;;;;;;1.53;0.90;;;26.40;61.60;;;;;;5054538;28;20473;-81
2022/05/25 03:48:26;;;;;;;1.30;0.80;;;26.50;61.70;;;;;;5054634;28;20446;-81
2022/05/25 03:50:53;;;;;;;1.00;0.70;;;26.30;61.40;;;;;;5054307;28;20955;-82
2022/05/25 03:53:19;;;;;;;1.30;0.93;;;26.30;61.50;;;;;;5054666;28;20469;-87
2022/05/25 03:55:47;;;;;;;1.20;0.90;;;26.30;61.40;;;;;;5054318;28;20445;-87
2022/05/25 03:58:15;;;;;;;1.00;0.83;;;26.30;61.50;;;;;;5054061;28;20437;-89
2022/05/25 04:00:42;;;;;;;1.00;0.70;;;26.30;61.50;;;;;;5054361;28;20445;-81
2022/05/25 04:03:13;;;;;;;1.07;0.80;;;26.40;61.60;;;;;;5053766;28;20434;-80
2022/05/25 04:05:40;;;;;;;1.10;0.90;;;26.30;61.50;;;;;;5053669;28;20446;-80
2022/05/25 04:08:08;;;;;;;1.10;0.80;;;26.50;61.70;;;;;;5054250;28;20444;-82
2022/05/25 04:10:35;;;;;;;1.00;0.80;;;26.30;61.40;;;;;;5054080;28;20458;-91
2022/05/25 04:13:02;;;;;;;1.00;0.77;;;26.30;61.50;;;;;;5055273;28;20438;-84
2022/05/25 04:15:32;;;;;;;1.20;1.00;;;26.30;61.50;;;;;;5054650;28;20456;-79
2022/05/25 04:17:59;;;;;;;1.00;0.90;;;26.30;61.40;;;;;;5042940;28;20451;-84
2022/05/25 04:20:27;;;;;;;1.30;0.77;;;26.20;61.80;;;;;;5034425;28;20802;-86
2022/05/25 04:22:54;;;;;;;1.50;0.90;;;26.20;61.80;;;;;;5034768;28;20434;-85
2022/05/25 04:25:24;;;;;;;2.10;1.00;;;26.20;61.70;;;;;;5035647;28;20445;-92
2022/05/25 04:27:53;;;;;;;1.10;1.00;;;26.20;61.90;;;;;;5053881;28;20482;-81
2022/05/25 04:30:25;;;;;;;1.10;0.80;;;26.20;61.80;;;;;;5053599;28;20474;-82
2022/05/25 04:32:54;;;;;;;1.27;0.80;;;26.30;62.30;;;;;;5054146;28;20445;-82
2022/05/25 04:35:22;;;;;;;1.30;1.00;;;26.20;62.50;;;;;;5053695;28;20437;-82
2022/05/25 04:37:56;;;;;;;1.43;0.90;;;26.20;62.80;;;;;;5054008;28;20442;-82
2022/05/25 04:40:30;;;;;;;1.20;1.10;;;26.30;62.90;;;;;;5053460;28;20465;-80
2022/05/25 04:42:58;;;;;;;1.50;1.00;;;26.20;62.00;;;;;;5053593;28;20925;-80
2022/05/25 04:45:26;;;;;;;1.20;0.90;;;26.20;63.10;;;;;;5053543;28;20442;-81
2022/05/25 04:47:55;;;;;;;2.43;1.43;;;26.30;63.70;;;;;;5053436;28;20822;-81
2022/05/25 04:50:23;;;;;;;2.27;0.80;;;26.30;63.80;;;;;;5053410;28;20854;-87
2022/05/25 04:52:50;;;;;;;1.40;1.10;;;26.30;63.90;;;;;;5053362;28;20495;-81
2022/05/25 04:58:02;;;;;;;1.07;0.97;;;26.30;64.00;;;;;;5053438;28;20929;-81
2022/05/25 05:00:29;;;;;;;1.43;1.10;;;26.30;64.20;;;;;;5035593;28;20449;-87
2022/05/25 05:02:57;;;;;;;1.37;1.03;;;26.40;64.30;;;;;;5035537;28;20449;-86
2022/05/25 05:05:25;;;;;;;2.10;1.20;;;26.30;64.30;;;;;;5052521;28;20445;-87
2022/05/25 05:07:51;;;;;;;1.10;0.90;;;26.30;64.30;;;;;;5047047;28;20485;-80
2022/05/25 05:10:19;;;;;;;1.30;1.13;;;26.30;63.90;;;;;;5052773;28;20457;-80
2022/05/25 05:12:46;;;;;;;1.53;0.90;;;26.30;64.20;;;;;;5053269;28;20438;-82
2022/05/25 05:15:14;;;;;;;1.30;1.20;;;26.30;64.30;;;;;;5052730;28;20444;-86
2022/05/25 05:17:41;;;;;;;4.07;1.30;;;26.30;63.00;;;;;;5053507;28;20445;-84
2022/05/25 05:20:11;;;;;;;1.40;1.00;;;26.20;62.40;;;;;;5052900;28;20441;-91
2022/05/25 05:22:38;;;;;;;1.10;0.90;;;26.20;62.50;;;;;;5053510;28;20438;-84
2022/05/25 05:25:07;;;;;;;1.93;0.97;;;26.20;63.20;;;;;;5053510;28;20437;-89
2022/05/25 05:27:34;;;;;;;1.10;0.90;;;26.20;63.50;;;;;;5052938;28;20477;-87
2022/05/25 05:30:03;;;;;;;1.40;1.00;;;26.20;63.60;;;;;;5049262;28;20480;-85
2022/05/25 05:32:31;;;;;;;1.00;0.90;;;26.20;63.40;;;;;;5056951;28;20445;-86
2022/05/25 05:34:58;;;;;;;1.70;1.10;;;26.30;63.30;;;;;;5073108;28;20463;-93
2022/05/25 05:37:32;;;;;;;1.33;1.03;;;26.20;63.10;;;;;;5073876;28;20471;-89
2022/05/25 05:39:59;;;;;;;3.27;1.03;;;26.30;62.90;;;;;;5062410;28;20468;-95
2022/05/25 05:42:27;;;;;;;2.00;1.10;;;26.20;62.90;;;;;;5065640;28;20529;-90
2022/05/25 05:44:59;;;;;;;2.60;0.93;;;26.20;63.00;;;;;;5052447;28;20455;-85
2022/05/25 05:47:30;;;;;;;2.50;1.20;;;26.20;63.10;;;;;;5052955;28;20988;-89
2022/05/25 05:49:57;;;;;;;1.17;1.00;;;26.30;63.20;;;;;;5052803;28;20433;-88
2022/05/25 05:52:27;;;;;;;2.30;0.90;;;26.30;63.20;;;;;;5049181;28;20454;-89
2022/05/25 05:54:54;;;;;;;1.30;1.20;;;26.40;63.20;;;;;;5041458;28;20806;-89
2022/05/25 05:57:21;;;;;;;1.77;1.20;;;26.30;63.00;;;;;;5037503;28;20458;-94
2022/05/25 05:59:48;;;;;;;1.10;0.90;;;26.30;63.00;;;;;;5033905;28;20457;-82
2022/05/25 06:02:15;;;;;;;1.03;0.80;;;26.30;62.90;;;;;;5052197;28;20442;-83
2022/05/25 06:04:41;;;;;;;1.33;1.00;;;26.30;63.00;;;;;;5052510;28;20964;-88
2022/05/25 06:07:08;;;;;;;1.17;0.90;;;26.30;63.00;;;;;;5052388;28;20485;-88
2022/05/25 06:09:36;;;;;;;1.53;1.10;;;26.30;62.90;;;;;;5052394;28;20469;-83
2022/05/25 06:12:04;;;;;;;1.40;1.00;;;26.30;62.90;;;;;;5052673;28;20445;-87
2022/05/25 06:14:31;;;;;;;1.20;1.00;;;26.30;62.90;;;;;;5052355;28;20453;-85
2022/05/25 06:19:42;;;;;;;1.00;0.87;;;26.30;62.80;;;;;;5055774;28;20417;-81
2022/05/25 06:22:10;;;;;;;3.20;0.90;;;26.30;62.90;;;;;;5055898;28;20445;-85
2022/05/25 06:24:41;;;;;;;1.60;1.10;;;26.30;62.90;;;;;;5056058;28;20453;-82
2022/05/25 06:27:11;;;;;;;2.03;0.80;;;26.30;62.90;;;;;;5075229;28;20499;-80
2022/05/25 06:29:39;;;;;;;2.07;1.00;;;26.30;62.90;;;;;;5075433;28;20479;-80
2022/05/25 06:32:08;;;;;;;1.33;0.80;;;26.30;62.90;;;;;;5075821;28;20456;-83
2022/05/25 06:34:35;;;;;;;1.07;0.93;;;26.30;62.80;;;;;;5075195;28;20444;-80
2022/05/25 06:37:02;;;;;;;1.83;1.20;;;26.30;62.80;;;;;;5075005;28;20452;-80
2022/05/25 06:39:34;;;;;;;1.20;0.90;;;26.30;62.80;;;;;;5075450;28;20519;-85
2022/05/25 06:42:03;;;;;;;1.23;1.10;;;26.30;62.70;;;;;;5076125;28;20456;-86
2022/05/25 06:44:30;;;;;;;1.30;1.20;;;26.30;62.70;;;;;;5076712;28;20445;-85
2022/05/25 06:46:56;;;;;;;4.93;1.10;;;26.30;62.00;;;;;;5076037;28;20834;-86
2022/05/25 06:49:23;;;;;;;1.33;0.90;;;26.30;61.60;;;;;;5075708;28;20441;-86
2022/05/25 06:51:50;;;;;;;5.27;1.17;;;26.30;61.00;;;;;;5075532;28;20455;-86
2022/05/25 06:54:19;;;;;;;1.80;1.00;;;26.30;61.30;;;;;;5075398;28;20536;-91
2022/05/25 06:56:46;;;;;;;1.50;0.93;;;26.30;61.50;;;;;;5075405;28;20448;-86
2022/05/25 06:59:14;;;;;;;1.13;0.80;;;26.30;61.80;;;;;;5075475;28;20535;-86
2022/05/25 07:01:42;;;;;;;1.30;1.00;;;26.30;61.90;;;;;;5075531;28;20455;-85
2022/05/25 07:04:10;;;;;;;1.30;1.13;;;26.30;61.60;;;;;;5075549;28;20437;-90
2022/05/25 07:06:39;;;;;;;1.00;0.80;;;26.30;61.70;;;;;;5075683;28;20447;-86
2022/05/25 07:09:07;;;;;;;4.60;0.90;;;26.30;61.50;;;;;;5075501;28;20464;-86
2022/05/25 07:11:34;;;;;;;1.10;0.90;;;26.30;61.40;;;;;;5075414;28;20444;-85
2022/05/25 07:14:01;;;;;;;1.73;1.63;;;26.30;61.20;;;;;;5075945;28;20444;-85
2022/05/25 07:16:31;;;;;;;1.10;1.00;;;26.20;61.30;;;;;;5075111;28;20445;-88
2022/05/25 07:19:20;;;;;;;1.00;0.80;;;26.30;61.00;;;;;;5064093;28;20460;-93
2022/05/25 07:21:48;;;;;;;1.10;0.90;;;26.30;61.10;;;;;;5055482;28;20505;-88
2022/05/25 07:24:15;;;;;;;1.27;0.90;;;26.20;61.00;;;;;;5056061;28;20537;-90
2022/05/25 07:26:42;;;;;;;6.60;1.53;;;26.20;61.10;;;;;;5055411;28;20441;-88
2022/05/25 07:29:09;;;;;;;1.63;0.80;;;26.40;61.20;;;;;;5054121;28;20442;-87
2022/05/25 07:31:43;;;;;;;1.13;0.80;;;26.30;61.00;;;;;;5054755;28;20983;-86
2022/05/25 07:34:13;;;;;;;1.20;0.90;;;26.30;60.80;;;;;;5055925;28;20433;-94
2022/05/25 07:36:42;;;;;;;2.40;1.00;;;26.30;60.70;;;;;;5055084;28;20434;-85
2022/05/25 07:39:11;;;;;;;3.03;0.90;;;26.20;59.30;;;;;;5054659;28;20465;-81
2022/05/25 07:41:40;;;;;;;1.47;1.10;;;26.20;58.20;;;;;;5054585;28;21143;-81
2022/05/25 07:44:11;;;;;;;1.20;0.90;;;26.20;58.60;;;;;;5054765;28;20453;-82
2022/05/25 07:46:40;;;;;;;2.37;0.90;;;26.30;59.00;;;;;;5054759;28;20446;-82
2022/05/25 07:49:06;;;;;;;1.10;1.00;;;26.30;59.60;;;;;;5054308;28;20481;-82
2022/05/25 07:51:33;;;;;;;1.60;1.27;;;26.30;60.10;;;;;;5054885;28;20449;-82
2022/05/25 07:54:02;;;;;;;1.83;1.00;;;26.30;60.60;;;;;;5054396;28;20445;-82
2022/05/25 07:56:31;;;;;;;4.80;1.30;;;26.30;60.90;;;;;;5054826;28;20446;-90
2022/05/25 07:58:59;;;;;;;1.30;0.90;;;26.40;60.70;;;;;;5051910;28;20503;-93
2022/05/25 08:07:01;;;;;;;2.13;1.30;;;26.30;60.00;;;;;;5054150;28;20429;-86
2022/05/25 08:09:30;;;;;;;1.73;0.80;;;26.30;60.00;;;;;;5048854;28;20488;-87
2022/05/25 08:11:57;;;;;;;1.60;1.10;;;26.30;59.90;;;;;;5054488;28;20532;-92
2022/05/25 08:14:26;;;;;;;2.50;1.00;;;26.30;59.90;;;;;;5054160;28;20441;-91
2022/05/25 08:16:53;;;;;;;1.10;1.00;;;26.30;60.00;;;;;;5054692;28;20445;-91
2022/05/25 08:19:21;;;;;;;1.50;0.83;;;26.30;60.00;;;;;;5054041;28;20468;-92
2022/05/25 08:21:49;;;;;;;1.10;0.80;;;26.30;60.10;;;;;;5051715;28;20451;-94
2022/05/25 08:25:05;;;;;;;1.33;0.80;;;26.30;60.10;;;;;;5034606;28;20448;-94
2022/05/25 08:27:33;;;;;;;1.10;0.70;;;26.40;60.20;;;;;;5037016;28;20475;-93
2022/05/25 08:30:00;;;;;;;2.43;1.10;;;26.30;60.40;;;;;;5034181;28;20859;-90
2022/05/25 08:32:27;;;;;;;1.67;0.80;;;26.30;60.30;;;;;;5035915;28;20529;-89
2022/05/25 08:34:55;;;;;;;1.63;1.10;;;26.40;60.30;;;;;;5058353;28;20529;-96
2022/05/25 08:37:24;;;;;;;1.20;0.87;;;26.40;60.20;;;;;;5055608;28;20441;-94
2022/05/25 08:39:51;;;;;;;1.47;0.83;;;26.40;60.40;;;;;;5054291;28;20465;-90
2022/05/25 08:42:21;;;;;;;1.10;0.87;;;26.40;60.30;;;;;;5058862;28;20441;-95
2022/05/25 08:44:50;;;;;;;1.03;0.83;;;26.40;60.30;;;;;;5055692;28;20528;-94
2022/05/25 08:47:18;;;;;;;0.93;0.70;;;26.40;60.10;;;;;;5054153;28;20446;-93
2022/05/25 08:49:46;;;;;;;1.00;0.80;;;26.50;60.30;;;;;;5054199;28;20538;-94
2022/05/25 08:52:24;;;;;;;1.00;0.70;;;26.50;60.40;;;;;;5053995;28;20446;-92
2022/05/25 08:54:52;;;;;;;1.00;0.70;;;26.50;60.20;;;;;;5054546;28;20438;-93
2022/05/25 08:57:24;;;;;;;1.17;0.90;;;26.50;60.30;;;;;;5054345;28;20921;-87
2022/05/25 08:59:54;;;;;;;1.03;0.80;;;26.50;60.30;;;;;;5054310;28;20444;-95
2022/05/25 09:02:28;;;;;;;1.30;0.80;;;26.50;60.30;;;;;;5054619;28;20450;-95
2022/05/25 09:05:01;;;;;;;1.10;0.90;;;26.50;60.30;;;;;;5059015;28;20438;-96
2022/05/25 09:07:39;;;;;;;1.00;0.80;;;26.50;60.30;;;;;;5054424;28;20434;-89
2022/05/25 09:10:07;;;;;;;1.07;0.80;;;26.50;60.30;;;;;;5053560;28;20469;-94
2022/05/25 09:12:37;;;;;;;1.07;0.80;;;26.50;60.40;;;;;;5049094;28;20449;-85
2022/05/25 09:15:09;;;;;;;2.13;0.90;;;26.50;60.40;;;;;;5036638;28;20465;-86
2022/05/25 09:17:40;;;;;;;1.30;0.90;;;26.60;60.40;;;;;;5033469;28;20530;-91
2022/05/25 09:20:10;;;;;;;1.10;0.90;;;26.60;60.70;;;;;;5033746;28;20439;-92
2022/05/25 09:22:42;;;;;;;1.30;0.90;;;26.60;62.30;;;;;;5034418;28;20988;-89
2022/05/25 09:25:11;;;;;;;1.00;0.80;;;26.70;61.60;;;;;;5033737;28;20446;-95
2022/05/25 09:27:42;;;;;;;0.90;0.70;;;26.70;61.60;;;;;;5038868;28;20565;-90
2022/05/25 09:30:10;;;;;;;1.67;0.83;;;26.70;61.70;;;;;;5053749;28;20973;-93
2022/05/25 09:32:44;;;;;;;1.10;0.90;;;26.70;61.70;;;;;;5056903;28;20520;-92
2022/05/25 09:35:15;;;;;;;3.47;0.80;;;26.70;61.60;;;;;;5053389;28;20453;-90
2022/05/25 09:37:50;;;;;;;1.10;0.80;;;26.80;61.60;;;;;;5036591;28;20466;-90
2022/05/25 09:40:22;;;;;;;1.03;0.83;;;26.80;61.60;;;;;;5033544;28;21111;-88
2022/05/25 09:42:55;;;;;;;3.00;0.90;;;26.80;61.60;;;;;;5032926;28;20438;-89
2022/05/25 09:45:23;;;;;;;1.00;0.80;;;26.90;61.50;;;;;;5033473;28;20533;-88
2022/05/25 09:47:52;;;;;;;1.00;0.80;;;26.90;61.60;;;;;;5045963;28;20482;-82
2022/05/25 09:50:30;;;;;;;1.00;0.80;;;26.90;61.60;;;;;;5032759;28;20443;-89
2022/05/25 09:53:02;;;;;;;0.93;0.70;;;26.90;61.50;;;;;;5035878;28;20435;-90
2022/05/25 09:55:34;;;;;;;1.33;0.80;;;27.00;61.50;;;;;;5037106;28;20434;-88
2022/05/25 09:58:05;;;;;;;1.00;0.70;;;27.00;61.40;;;;;;5042895;28;20442;-95
2022/05/25 10:00:52;;;;;;;1.10;0.90;;;27.00;61.40;;;;;;5059849;28;20810;-91
2022/05/25 10:03:28;;;;;;;1.10;0.90;;;27.10;61.40;;;;;;5055401;28;20441;-90
2022/05/25 10:05:57;;;;;;;1.17;0.80;;;27.10;61.50;;;;;;5047766;28;20452;-90
2022/05/25 10:08:32;;;;;;;1.00;0.80;;;27.10;61.40;;;;;;5056781;28;20502;-90
2022/05/25 10:11:11;;;;;;;1.10;0.90;;;27.10;61.40;;;;;;5045460;28;20457;-89
2022/05/25 10:13:40;;;;;;;1.20;0.67;;;27.10;61.40;;;;;;5055701;28;20460;-89
2022/05/25 10:16:23;;;;;;;0.97;0.67;;;27.10;62.30;;;;;;5056627;28;20453;-91
2022/05/25 10:18:52;;;;;;;1.03;0.93;;;27.10;61.40;;;;;;5046487;28;20569;-94
2022/05/25 10:21:27;;;;;;;1.10;0.80;;;27.10;61.40;;;;;;5036238;28;20448;-86
2022/05/25 10:23:57;;;;;;;1.00;0.70;;;27.10;61.40;;;;;;5036908;28;20464;-85
2022/05/25 10:26:36;;;;;;;0.97;0.70;;;27.20;61.30;;;;;;5049392;28;20863;-91
2022/05/25 10:29:07;;;;;;;1.10;0.80;;;27.20;61.30;;;;;;5036617;28;20497;-92
2022/05/25 10:37:19;;;;;;;1.00;0.60;;;27.20;61.40;;;;;;5036093;28;20516;-89
2022/05/25 10:40:00;;;;;;;1.20;0.80;;;27.20;61.30;;;;;;5035372;28;20462;-86
2022/05/25 10:42:29;;;;;;;1.30;0.90;;;27.30;61.20;;;;;;5035366;28;20450;-88
2022/05/25 10:45:05;;;;;;;1.40;0.80;;;27.30;61.20;;;;;;5036221;28;20450;-92
2022/05/25 10:47:57;;;;;;;1.00;0.80;;;27.30;61.10;;;;;;5036299;28;20435;-93
2022/05/25 10:50:26;;;;;;;1.00;0.80;;;27.30;61.00;;;;;;5036684;28;20443;-91
2022/05/25 10:52:59;;;;;;;1.07;0.87;;;27.30;61.20;;;;;;5039348;28;20480;-88
2022/05/25 10:55:32;;;;;;;1.23;0.80;;;27.30;61.10;;;;;;5035809;28;20451;-90
2022/05/25 10:58:18;;;;;;;0.90;0.60;;;27.40;61.20;;;;;;5045215;28;20507;-89
2022/05/25 11:00:57;;;;;;;1.00;0.80;;;27.40;61.10;;;;;;5050540;28;20450;-83
2022/05/25 11:03:51;;;;;;;0.90;0.70;;;27.40;61.10;;;;;;5054249;28;20449;-87
2022/05/25 11:06:37;;;;;;;1.13;0.90;;;27.40;61.10;;;;;;5055494;28;20453;-86
2022/05/25 11:09:19;;;;;;;1.00;0.70;;;27.40;61.00;;;;;;5054919;28;20489;-89
2022/05/25 11:11:57;;;;;;;1.10;0.90;;;27.40;61.10;;;;;;5051024;28;20464;-88
2022/05/25 11:14:40;;;;;;;1.40;0.70;;;27.40;61.10;;;;;;5041212;28;20822;-88
2022/05/25 11:17:20;;;;;;;1.00;0.60;;;27.40;61.00;;;;;;5034810;28;20805;-89
2022/05/25 11:20:02;;;;;;;1.23;0.70;;;27.40;61.10;;;;;;5040475;28;20462;-88
2022/05/25 11:22:40;;;;;;;1.30;0.70;;;27.40;61.00;;;;;;5045817;28;20801;-88
2022/05/25 11:25:37;;;;;;;0.90;0.60;;;27.40;61.00;;;;;;5035470;28;20789;-96
2022/05/25 11:28:16;;;;;;;0.93;0.63;;;27.50;61.00;;;;;;5014007;28;20454;-84
2022/05/25 11:30:59;;;;;;;1.27;0.70;;;27.50;61.00;;;;;;5034494;28;20997;-86
2022/05/25 11:33:40;;;;;;;1.83;0.83;;;27.50;61.10;;;;;;5035284;28;20793;-91
2022/05/25 11:36:17;;;;;;;0.90;0.60;;;27.50;61.10;;;;;;5055326;28;20430;-90
2022/05/25 11:38:59;;;;;;;0.97;0.67;;;27.50;61.10;;;;;;5054990;28;20469;-90
2022/05/25 11:41:39;;;;;;;0.90;0.70;;;27.50;61.00;;;;;;5055069;28;20445;-93
2022/05/25 11:44:32;;;;;;;1.17;0.90;;;27.50;61.00;;;;;;5047660;28;20442;-90
2022/05/25 11:47:07;;;;;;;1.00;0.70;;;27.50;61.00;;;;;;5035069;28;20496;-91
2022/05/25 11:49:55;;;;;;;1.73;1.30;;;27.50;61.10;;;;;;5044409;28;20485;-90
2022/05/25 11:52:53;;;;;;;1.80;0.80;;;27.50;61.00;;;;;;5046571;28;20811;-88
2022/05/25 11:55:22;;;;;;;0.97;0.70;;;27.50;61.00;;;;;;5054745;28;20465;-90
2022/05/25 11:58:02;;;;;;;2.53;1.00;;;27.40;60.90;;;;;;5054731;28;20442;-87
2022/05/25 12:00:40;;;;;;;1.10;0.70;;;27.50;61.20;;;;;;5054414;28;20520;-90
2022/05/25 12:03:34;;;;;;;1.10;0.83;;;27.50;61.00;;;;;;5054438;28;20986;-88
2022/05/25 12:06:14;;;;;;;1.00;0.70;;;27.50;60.90;;;;;;5054481;28;20430;-87
2022/05/25 12:09:11;;;;;;;0.93;0.60;;;27.50;61.00;;;;;;5054264;28;20593;-83
2022/05/25 12:11:43;;;;;;;1.00;0.70;;;27.50;60.90;;;;;;5054096;28;20450;-84
2022/05/25 12:14:31;;;;;;;0.90;0.70;;;27.40;60.90;;;;;;5054067;28;20450;-84
2022/05/25 12:17:05;;;;;;;1.00;0.70;;;27.50;60.90;;;;;;5054118;28;20541;-85
2022/05/25 12:19:36;;;;;;;2.60;0.70;;;27.40;60.90;;;;;;5068751;28;20445;-85
2022/05/25 12:22:08;;;;;;;1.00;0.80;;;27.50;60.90;;;;;;5053886;28;20445;-84
2022/05/25 12:24:38;;;;;;;1.10;0.70;;;27.50;60.90;;;;;;5053714;28;20925;-84
2022/05/25 12:27:08;;;;;;;1.40;0.70;;;27.50;60.90;;;;;;5053634;28;20820;-81
2022/05/25 12:29:39;;;;;;;0.90;0.63;;;27.50;60.90;;;;;;5052464;28;20493;-80
2022/05/25 12:32:09;;;;;;;1.00;0.70;;;27.50;60.90;;;;;;5053409;28;20453;-80
2022/05/25 12:34:40;;;;;;;1.73;0.67;;;27.60;61.00;;;;;;5053340;28;20473;-83
2022/05/25 12:37:09;;;;;;;1.10;0.70;;;27.40;59.60;;;;;;5053840;28;20446;-84
2022/05/25 12:39:57;;;;;;;1.73;0.90;;;27.40;58.70;;;;;;5053612;28;20484;-84
2022/05/25 12:42:34;;;;;;;1.67;0.70;;;27.40;58.40;;;;;;5053609;28;20944;-84
2022/05/25 12:50:44;;;;;;;1.10;0.70;;;27.30;58.40;;;;;;5053421;28;20780;-84
2022/05/25 12:53:35;;;;;;;1.00;0.70;;;27.20;58.50;;;;;;5053226;28;20442;-84
2022/05/25 12:56:05;;;;;;;1.33;0.73;;;27.40;58.60;;;;;;5042744;28;20500;-84
2022/05/25 12:58:42;;;;;;;1.93;0.60;;;27.10;58.40;;;;;;5068525;28;20793;-84
2022/05/25 13:01:31;;;;;;;1.10;0.70;;;27.20;58.40;;;;;;5052829;28;20453;-84
2022/05/25 13:04:20;;;;;;;1.63;0.70;;;27.20;58.40;;;;;;5053293;28;20438;-84
2022/05/25 13:07:23;;;;;;;1.53;0.80;;;27.10;58.50;;;;;;5052912;28;20441;-85
2022/05/25 13:09:50;;;;;;;1.50;0.60;;;27.10;58.40;;;;;;5028405;28;20576;-83
2022/05/25 13:12:46;;;;;;;0.90;0.70;;;27.10;58.50;;;;;;5068893;28;20444;-83
2022/05/25 13:15:46;;;;;;;0.90;0.60;;;27.10;58.50;;;;;;5053303;28;20440;-84
2022/05/25 13:18:45;;;;;;;2.50;0.70;;;27.10;58.70;;;;;;5052865;28;20437;-84
2022/05/25 13:21:32;;;;;;;1.00;0.60;;;27.00;58.60;;;;;;5053166;28;20441;-85
2022/05/25 13:24:19;;;;;;;0.90;0.60;;;27.00;58.70;;;;;;5053180;28;20448;-85
2022/05/25 13:26:55;;;;;;;1.00;0.67;;;27.00;58.50;;;;;;5054185;28;20448;-85
2022/05/25 13:29:29;;;;;;;2.23;0.70;;;27.10;58.60;;;;;;5056756;28;20559;-85
2022/05/25 13:32:03;;;;;;;2.27;0.70;;;27.00;58.60;;;;;;5037521;28;20451;-84
2022/05/25 13:34:32;;;;;;;1.00;0.80;;;27.00;58.50;;;;;;5037161;28;20441;-84
2022/05/25 13:37:05;;;;;;;1.00;0.70;;;27.00;58.60;;;;;;5036668;28;20453;-87
2022/05/25 13:39:32;;;;;;;2.80;0.70;;;27.00;58.40;;;;;;5022396;28;20471;-81
2022/05/25 13:42:06;;;;;;;1.00;0.70;;;27.00;58.90;;;;;;5039713;28;20804;-80